sensor_id;sensor_type;location;lat;lon;timestamp;temperature;humidity
5358;DHT22;2702;51.014;7.170;2022-07-21T00:01:31;19.10;99.90
5358;DHT22;2702;51.014;7.170;2022-07-21T00:03:57;19.00;99.90
5358;DHT22;2702;51.014;7.170;2022-07-21T00:06:23;19.10;99.90
5358;DHT22;2702;51.014;7.170;2022-07-21T00:08:49;19.10;99.90
5358;DHT22;2702;51.014;7.170;2022-07-21T00:11:16;19.10;99.90
5358;DHT22;2702;51.014;7.170;2022-07-21T00:13:42;19.00;99.90
5358;DHT22;2702;51.014;7.170;2022-07-21T00:16:08;19.00;99.90
5358;DHT22;2702;51.014;7.170;2022-07-21T00:18:34;19.00;99.90
5358;DHT22;2702;51.014;7.170;2022-07-21T00:21:00;18.90;99.90
5358;DHT22;2702;51.014;7.170;2022-07-21T00:23:26;19.00;99.90
5358;DHT22;2702;51.014;7.170;2022-07-21T00:25:52;19.20;99.90
5358;DHT22;2702;51.014;7.170;2022-07-21T00:28:19;19.30;99.90
5358;DHT22;2702;51.014;7.170;2022-07-21T00:30:46;19.40;99.90
5358;DHT22;2702;51.014;7.170;2022-07-21T00:33:11;19.60;99.90
5358;DHT22;2702;51.014;7.170;2022-07-21T00:35:38;19.60;99.90
5358;DHT22;2702;51.014;7.170;2022-07-21T00:38:04;19.70;99.90
5358;DHT22;2702;51.014;7.170;2022-07-21T00:40:30;19.70;99.90
5358;DHT22;2702;51.014;7.170;2022-07-21T00:42:57;19.80;99.90
5358;DHT22;2702;51.014;7.170;2022-07-21T00:45:23;19.90;99.90
5358;DHT22;2702;51.014;7.170;2022-07-21T00:47:49;19.90;99.90
5358;DHT22;2702;51.014;7.170;2022-07-21T00:50:18;20.00;99.90
5358;DHT22;2702;51.014;7.170;2022-07-21T00:52:46;20.00;99.90
5358;DHT22;2702;51.014;7.170;2022-07-21T00:55:15;20.00;99.90
5358;DHT22;2702;51.014;7.170;2022-07-21T00:57:42;20.00;99.90
5358;DHT22;2702;51.014;7.170;2022-07-21T01:00:12;20.10;99.90
5358;DHT22;2702;51.014;7.170;2022-07-21T01:02:38;20.10;99.90
5358;DHT22;2702;51.014;7.170;2022-07-21T01:05:08;20.10;99.90
5358;DHT22;2702;51.014;7.170;2022-07-21T01:07:45;20.10;99.90
5358;DHT22;2702;51.014;7.170;2022-07-21T01:10:13;20.10;99.90
5358;DHT22;2702;51.014;7.170;2022-07-21T01:12:40;20.10;99.90
5358;DHT22;2702;51.014;7.170;2022-07-21T01:15:08;20.10;99.90
5358;DHT22;2702;51.014;7.170;2022-07-21T01:17:36;20.10;99.90
5358;DHT22;2702;51.014;7.170;2022-07-21T01:20:06;20.10;99.90
5358;DHT22;2702;51.014;7.170;2022-07-21T01:22:34;20.10;99.90
5358;DHT22;2702;51.014;7.170;2022-07-21T01:25:00;20.20;99.90
5358;DHT22;2702;51.014;7.170;2022-07-21T01:27:27;20.20;99.90
5358;DHT22;2702;51.014;7.170;2022-07-21T01:29:54;20.20;99.90
5358;DHT22;2702;51.014;7.170;2022-07-21T01:32:24;20.10;99.90
5358;DHT22;2702;51.014;7.170;2022-07-21T01:34:50;20.10;99.90
5358;DHT22;2702;51.014;7.170;2022-07-21T01:37:23;20.00;99.90
5358;DHT22;2702;51.014;7.170;2022-07-21T01:39:50;20.00;99.90
5358;DHT22;2702;51.014;7.170;2022-07-21T01:42:35;20.00;99.90
5358;DHT22;2702;51.014;7.170;2022-07-21T01:45:03;19.90;99.90
5358;DHT22;2702;51.014;7.170;2022-07-21T01:47:29;19.80;99.90
5358;DHT22;2702;51.014;7.170;2022-07-21T01:49:55;19.60;99.90
5358;DHT22;2702;51.014;7.170;2022-07-21T01:52:21;19.60;99.90
5358;DHT22;2702;51.014;7.170;2022-07-21T01:54:47;19.40;99.90
5358;DHT22;2702;51.014;7.170;2022-07-21T01:57:13;19.50;99.90
5358;DHT22;2702;51.014;7.170;2022-07-21T01:59:39;19.50;99.90
5358;DHT22;2702;51.014;7.170;2022-07-21T02:02:05;19.60;99.90
5358;DHT22;2702;51.014;7.170;2022-07-21T02:04:31;19.60;99.90
5358;DHT22;2702;51.014;7.170;2022-07-21T02:07:02;19.70;99.90
5358;DHT22;2702;51.014;7.170;2022-07-21T02:09:28;19.70;99.90
5358;DHT22;2702;51.014;7.170;2022-07-21T02:11:55;19.70;99.90
5358;DHT22;2702;51.014;7.170;2022-07-21T02:14:21;19.80;99.90
5358;DHT22;2702;51.014;7.170;2022-07-21T02:16:47;19.80;99.90
5358;DHT22;2702;51.014;7.170;2022-07-21T02:19:13;19.90;99.90
5358;DHT22;2702;51.014;7.170;2022-07-21T02:21:39;19.90;99.90
5358;DHT22;2702;51.014;7.170;2022-07-21T02:24:05;19.80;99.90
5358;DHT22;2702;51.014;7.170;2022-07-21T02:26:32;19.80;99.90
5358;DHT22;2702;51.014;7.170;2022-07-21T02:28:58;19.80;99.90
5358;DHT22;2702;51.014;7.170;2022-07-21T02:31:27;19.70;99.90
5358;DHT22;2702;51.014;7.170;2022-07-21T02:33:53;19.70;99.90
5358;DHT22;2702;51.014;7.170;2022-07-21T02:36:19;19.60;99.90
5358;DHT22;2702;51.014;7.170;2022-07-21T02:38:45;19.60;99.90
5358;DHT22;2702;51.014;7.170;2022-07-21T02:41:11;19.70;99.90
5358;DHT22;2702;51.014;7.170;2022-07-21T02:43:37;19.60;99.90
5358;DHT22;2702;51.014;7.170;2022-07-21T02:46:03;19.60;99.90
5358;DHT22;2702;51.014;7.170;2022-07-21T02:48:28;19.60;99.90
5358;DHT22;2702;51.014;7.170;2022-07-21T02:50:54;19.60;99.90
5358;DHT22;2702;51.014;7.170;2022-07-21T02:53:20;19.60;99.90
5358;DHT22;2702;51.014;7.170;2022-07-21T02:55:49;19.60;99.90
5358;DHT22;2702;51.014;7.170;2022-07-21T02:58:24;19.60;99.90
5358;DHT22;2702;51.014;7.170;2022-07-21T03:00:54;19.60;99.90
5358;DHT22;2702;51.014;7.170;2022-07-21T03:03:22;19.60;99.90
5358;DHT22;2702;51.014;7.170;2022-07-21T03:05:49;19.60;99.90
5358;DHT22;2702;51.014;7.170;2022-07-21T03:08:15;19.60;99.90
5358;DHT22;2702;51.014;7.170;2022-07-21T03:10:42;19.60;99.90
5358;DHT22;2702;51.014;7.170;2022-07-21T03:13:08;19.60;99.90
5358;DHT22;2702;51.014;7.170;2022-07-21T03:15:34;19.50;99.90
5358;DHT22;2702;51.014;7.170;2022-07-21T03:18:00;19.50;99.90
5358;DHT22;2702;51.014;7.170;2022-07-21T03:20:29;19.40;99.90
5358;DHT22;2702;51.014;7.170;2022-07-21T03:22:56;19.40;99.90
5358;DHT22;2702;51.014;7.170;2022-07-21T03:25:22;19.50;99.90
5358;DHT22;2702;51.014;7.170;2022-07-21T03:27:48;19.50;99.90
5358;DHT22;2702;51.014;7.170;2022-07-21T03:30:15;19.40;99.90
5358;DHT22;2702;51.014;7.170;2022-07-21T03:32:42;19.50;99.90
5358;DHT22;2702;51.014;7.170;2022-07-21T03:35:09;19.50;99.90
5358;DHT22;2702;51.014;7.170;2022-07-21T03:37:43;19.50;99.90
5358;DHT22;2702;51.014;7.170;2022-07-21T03:40:12;19.50;99.90
5358;DHT22;2702;51.014;7.170;2022-07-21T03:42:38;19.50;99.90
5358;DHT22;2702;51.014;7.170;2022-07-21T03:45:05;19.40;99.90
5358;DHT22;2702;51.014;7.170;2022-07-21T03:47:31;19.40;99.90
5358;DHT22;2702;51.014;7.170;2022-07-21T03:49:57;19.30;99.90
5358;DHT22;2702;51.014;7.170;2022-07-21T03:52:23;19.20;99.90
5358;DHT22;2702;51.014;7.170;2022-07-21T03:54:49;19.20;99.90
5358;DHT22;2702;51.014;7.170;2022-07-21T03:57:15;19.30;99.90
5358;DHT22;2702;51.014;7.170;2022-07-21T03:59:41;19.30;99.90
5358;DHT22;2702;51.014;7.170;2022-07-21T04:02:07;19.30;99.90
5358;DHT22;2702;51.014;7.170;2022-07-21T04:04:33;19.40;99.90
5358;DHT22;2702;51.014;7.170;2022-07-21T04:06:59;19.20;99.90
5358;DHT22;2702;51.014;7.170;2022-07-21T04:09:24;19.30;99.90
5358;DHT22;2702;51.014;7.170;2022-07-21T04:11:50;19.20;99.90
5358;DHT22;2702;51.014;7.170;2022-07-21T04:14:16;19.20;99.90
5358;DHT22;2702;51.014;7.170;2022-07-21T04:16:42;19.20;99.90
5358;DHT22;2702;51.014;7.170;2022-07-21T04:19:08;19.20;99.90
5358;DHT22;2702;51.014;7.170;2022-07-21T04:21:34;19.10;99.90
5358;DHT22;2702;51.014;7.170;2022-07-21T04:24:00;19.10;99.90
5358;DHT22;2702;51.014;7.170;2022-07-21T04:26:26;19.00;99.90
5358;DHT22;2702;51.014;7.170;2022-07-21T04:28:54;19.10;99.90
5358;DHT22;2702;51.014;7.170;2022-07-21T04:31:19;19.00;99.90
5358;DHT22;2702;51.014;7.170;2022-07-21T04:33:45;19.00;99.90
5358;DHT22;2702;51.014;7.170;2022-07-21T04:36:11;19.00;99.90
5358;DHT22;2702;51.014;7.170;2022-07-21T04:38:38;19.00;99.90
5358;DHT22;2702;51.014;7.170;2022-07-21T04:41:04;19.00;99.90
5358;DHT22;2702;51.014;7.170;2022-07-21T04:43:30;19.10;99.90
5358;DHT22;2702;51.014;7.170;2022-07-21T04:45:56;19.10;99.90
5358;DHT22;2702;51.014;7.170;2022-07-21T04:48:22;19.20;99.90
5358;DHT22;2702;51.014;7.170;2022-07-21T04:50:48;19.20;99.90
5358;DHT22;2702;51.014;7.170;2022-07-21T04:53:14;19.30;99.90
5358;DHT22;2702;51.014;7.170;2022-07-21T04:55:40;19.20;99.90
5358;DHT22;2702;51.014;7.170;2022-07-21T04:58:05;19.20;99.90
5358;DHT22;2702;51.014;7.170;2022-07-21T05:00:31;19.20;99.90
5358;DHT22;2702;51.014;7.170;2022-07-21T05:02:57;19.10;99.90
5358;DHT22;2702;51.014;7.170;2022-07-21T05:05:23;19.10;99.90
5358;DHT22;2702;51.014;7.170;2022-07-21T05:07:49;19.10;99.90
5358;DHT22;2702;51.014;7.170;2022-07-21T05:10:17;19.10;99.90
5358;DHT22;2702;51.014;7.170;2022-07-21T05:12:44;19.20;99.90
5358;DHT22;2702;51.014;7.170;2022-07-21T05:15:11;19.40;99.90
5358;DHT22;2702;51.014;7.170;2022-07-21T05:17:37;19.40;99.90
5358;DHT22;2702;51.014;7.170;2022-07-21T05:20:04;19.40;99.90
5358;DHT22;2702;51.014;7.170;2022-07-21T05:22:31;19.50;99.90
5358;DHT22;2702;51.014;7.170;2022-07-21T05:24:57;19.50;99.90
5358;DHT22;2702;51.014;7.170;2022-07-21T05:27:23;19.50;99.90
5358;DHT22;2702;51.014;7.170;2022-07-21T05:29:49;19.50;99.90
5358;DHT22;2702;51.014;7.170;2022-07-21T05:32:15;19.50;99.90
5358;DHT22;2702;51.014;7.170;2022-07-21T05:34:40;19.50;99.90
5358;DHT22;2702;51.014;7.170;2022-07-21T05:37:06;19.50;99.90
5358;DHT22;2702;51.014;7.170;2022-07-21T05:39:32;19.50;99.90
5358;DHT22;2702;51.014;7.170;2022-07-21T05:41:58;19.50;99.90
5358;DHT22;2702;51.014;7.170;2022-07-21T05:44:24;19.50;99.90
5358;DHT22;2702;51.014;7.170;2022-07-21T05:46:50;19.60;99.90
5358;DHT22;2702;51.014;7.170;2022-07-21T05:49:16;19.60;99.90
5358;DHT22;2702;51.014;7.170;2022-07-21T05:51:42;19.70;99.90
5358;DHT22;2702;51.014;7.170;2022-07-21T05:54:08;19.80;99.90
5358;DHT22;2702;51.014;7.170;2022-07-21T05:56:33;19.80;99.90
5358;DHT22;2702;51.014;7.170;2022-07-21T05:58:59;19.80;99.90
5358;DHT22;2702;51.014;7.170;2022-07-21T06:01:25;19.70;99.90
5358;DHT22;2702;51.014;7.170;2022-07-21T06:03:51;19.70;99.90
5358;DHT22;2702;51.014;7.170;2022-07-21T06:06:18;19.60;99.90
5358;DHT22;2702;51.014;7.170;2022-07-21T06:08:46;19.40;99.90
5358;DHT22;2702;51.014;7.170;2022-07-21T06:11:15;19.40;99.90
5358;DHT22;2702;51.014;7.170;2022-07-21T06:13:42;19.30;99.90
5358;DHT22;2702;51.014;7.170;2022-07-21T06:16:08;19.40;99.90
5358;DHT22;2702;51.014;7.170;2022-07-21T06:18:34;19.30;99.90
5358;DHT22;2702;51.014;7.170;2022-07-21T06:21:00;19.30;99.90
5358;DHT22;2702;51.014;7.170;2022-07-21T06:23:27;19.30;99.90
5358;DHT22;2702;51.014;7.170;2022-07-21T06:25:53;19.30;99.90
5358;DHT22;2702;51.014;7.170;2022-07-21T06:28:20;19.20;99.90
5358;DHT22;2702;51.014;7.170;2022-07-21T06:30:47;19.20;99.90
5358;DHT22;2702;51.014;7.170;2022-07-21T06:33:13;19.30;99.90
5358;DHT22;2702;51.014;7.170;2022-07-21T06:35:39;19.30;99.90
5358;DHT22;2702;51.014;7.170;2022-07-21T06:38:05;19.30;99.90
5358;DHT22;2702;51.014;7.170;2022-07-21T06:40:31;19.20;99.90
5358;DHT22;2702;51.014;7.170;2022-07-21T06:42:57;19.10;99.90
5358;DHT22;2702;51.014;7.170;2022-07-21T06:45:24;19.10;99.90
5358;DHT22;2702;51.014;7.170;2022-07-21T06:47:50;19.10;99.90
5358;DHT22;2702;51.014;7.170;2022-07-21T06:50:20;19.10;99.90
5358;DHT22;2702;51.014;7.170;2022-07-21T06:52:46;19.20;99.90
5358;DHT22;2702;51.014;7.170;2022-07-21T06:55:11;19.30;99.90
5358;DHT22;2702;51.014;7.170;2022-07-21T06:57:37;19.30;99.90
5358;DHT22;2702;51.014;7.170;2022-07-21T07:00:05;19.40;99.90
5358;DHT22;2702;51.014;7.170;2022-07-21T07:02:32;19.50;99.90
5358;DHT22;2702;51.014;7.170;2022-07-21T07:04:58;19.60;99.90
5358;DHT22;2702;51.014;7.170;2022-07-21T07:07:24;19.70;99.90
5358;DHT22;2702;51.014;7.170;2022-07-21T07:09:50;19.90;99.90
5358;DHT22;2702;51.014;7.170;2022-07-21T07:12:16;20.10;99.90
5358;DHT22;2702;51.014;7.170;2022-07-21T07:14:41;20.20;99.90
5358;DHT22;2702;51.014;7.170;2022-07-21T07:17:07;20.30;99.90
5358;DHT22;2702;51.014;7.170;2022-07-21T07:19:34;20.30;99.90
5358;DHT22;2702;51.014;7.170;2022-07-21T07:22:00;20.40;99.90
5358;DHT22;2702;51.014;7.170;2022-07-21T07:24:26;20.60;99.90
5358;DHT22;2702;51.014;7.170;2022-07-21T07:26:52;20.80;99.90
5358;DHT22;2702;51.014;7.170;2022-07-21T07:29:17;21.00;99.90
5358;DHT22;2702;51.014;7.170;2022-07-21T07:31:43;21.10;99.90
5358;DHT22;2702;51.014;7.170;2022-07-21T07:34:09;21.30;99.90
5358;DHT22;2702;51.014;7.170;2022-07-21T07:36:35;21.40;99.90
5358;DHT22;2702;51.014;7.170;2022-07-21T07:39:02;21.60;99.90
5358;DHT22;2702;51.014;7.170;2022-07-21T07:41:28;21.70;99.90
5358;DHT22;2702;51.014;7.170;2022-07-21T07:43:55;21.80;99.90
5358;DHT22;2702;51.014;7.170;2022-07-21T07:46:21;21.90;99.90
5358;DHT22;2702;51.014;7.170;2022-07-21T07:48:47;22.00;99.90
5358;DHT22;2702;51.014;7.170;2022-07-21T07:51:14;22.00;99.90
5358;DHT22;2702;51.014;7.170;2022-07-21T07:53:41;22.00;99.90
5358;DHT22;2702;51.014;7.170;2022-07-21T07:56:08;21.90;99.90
5358;DHT22;2702;51.014;7.170;2022-07-21T07:58:34;22.10;99.90
5358;DHT22;2702;51.014;7.170;2022-07-21T08:01:01;22.20;99.90
5358;DHT22;2702;51.014;7.170;2022-07-21T08:03:27;22.40;99.90
5358;DHT22;2702;51.014;7.170;2022-07-21T08:05:55;22.40;99.90
5358;DHT22;2702;51.014;7.170;2022-07-21T08:08:22;22.50;99.90
5358;DHT22;2702;51.014;7.170;2022-07-21T08:10:48;22.50;99.90
5358;DHT22;2702;51.014;7.170;2022-07-21T08:13:15;22.60;99.90
5358;DHT22;2702;51.014;7.170;2022-07-21T08:15:43;22.70;99.90
5358;DHT22;2702;51.014;7.170;2022-07-21T08:18:09;22.90;99.90
5358;DHT22;2702;51.014;7.170;2022-07-21T08:20:36;23.00;99.90
5358;DHT22;2702;51.014;7.170;2022-07-21T08:23:04;22.70;99.90
5358;DHT22;2702;51.014;7.170;2022-07-21T08:25:30;22.70;99.90
5358;DHT22;2702;51.014;7.170;2022-07-21T08:27:56;22.70;99.90
5358;DHT22;2702;51.014;7.170;2022-07-21T08:30:23;23.00;99.90
5358;DHT22;2702;51.014;7.170;2022-07-21T08:32:49;23.20;99.90
5358;DHT22;2702;51.014;7.170;2022-07-21T08:35:15;23.40;99.90
5358;DHT22;2702;51.014;7.170;2022-07-21T08:37:41;23.50;99.90
5358;DHT22;2702;51.014;7.170;2022-07-21T08:40:10;23.50;99.90
5358;DHT22;2702;51.014;7.170;2022-07-21T08:42:37;23.50;99.90
5358;DHT22;2702;51.014;7.170;2022-07-21T08:45:04;23.40;99.90
5358;DHT22;2702;51.014;7.170;2022-07-21T08:47:31;23.50;99.90
5358;DHT22;2702;51.014;7.170;2022-07-21T08:49:58;23.60;99.90
5358;DHT22;2702;51.014;7.170;2022-07-21T08:52:24;23.50;99.90
5358;DHT22;2702;51.014;7.170;2022-07-21T08:54:50;23.50;99.90
5358;DHT22;2702;51.014;7.170;2022-07-21T08:57:17;23.50;99.90
5358;DHT22;2702;51.014;7.170;2022-07-21T08:59:43;23.50;99.90
5358;DHT22;2702;51.014;7.170;2022-07-21T09:02:27;23.30;99.90
5358;DHT22;2702;51.014;7.170;2022-07-21T09:04:53;23.20;99.90
5358;DHT22;2702;51.014;7.170;2022-07-21T09:07:20;23.20;99.90
5358;DHT22;2702;51.014;7.170;2022-07-21T09:09:56;23.30;99.90
5358;DHT22;2702;51.014;7.170;2022-07-21T09:12:23;23.40;99.90
5358;DHT22;2702;51.014;7.170;2022-07-21T09:14:49;23.40;99.90
5358;DHT22;2702;51.014;7.170;2022-07-21T09:17:17;23.40;99.90
5358;DHT22;2702;51.014;7.170;2022-07-21T09:19:45;23.50;99.90
5358;DHT22;2702;51.014;7.170;2022-07-21T09:22:17;23.50;99.90
5358;DHT22;2702;51.014;7.170;2022-07-21T09:24:51;23.60;99.90
5358;DHT22;2702;51.014;7.170;2022-07-21T09:27:24;23.80;99.90
5358;DHT22;2702;51.014;7.170;2022-07-21T09:29:56;24.00;99.90
5358;DHT22;2702;51.014;7.170;2022-07-21T09:32:35;23.80;99.90
5358;DHT22;2702;51.014;7.170;2022-07-21T09:35:09;23.60;99.90
5358;DHT22;2702;51.014;7.170;2022-07-21T09:37:37;23.50;99.90
5358;DHT22;2702;51.014;7.170;2022-07-21T09:40:08;23.30;99.90
5358;DHT22;2702;51.014;7.170;2022-07-21T09:42:41;23.40;99.90
5358;DHT22;2702;51.014;7.170;2022-07-21T09:45:10;23.70;99.90
5358;DHT22;2702;51.014;7.170;2022-07-21T09:47:39;24.10;99.90
5358;DHT22;2702;51.014;7.170;2022-07-21T09:50:07;24.50;99.90
5358;DHT22;2702;51.014;7.170;2022-07-21T09:52:36;24.60;99.90
5358;DHT22;2702;51.014;7.170;2022-07-21T09:55:08;24.50;99.90
5358;DHT22;2702;51.014;7.170;2022-07-21T09:57:35;24.30;99.90
5358;DHT22;2702;51.014;7.170;2022-07-21T10:00:03;24.10;99.90
5358;DHT22;2702;51.014;7.170;2022-07-21T10:02:32;23.80;99.90
5358;DHT22;2702;51.014;7.170;2022-07-21T10:05:06;23.90;99.90
5358;DHT22;2702;51.014;7.170;2022-07-21T10:07:37;23.90;99.90
5358;DHT22;2702;51.014;7.170;2022-07-21T10:10:04;24.10;99.90
5358;DHT22;2702;51.014;7.170;2022-07-21T10:12:30;24.30;99.90
5358;DHT22;2702;51.014;7.170;2022-07-21T10:14:56;24.50;99.90
5358;DHT22;2702;51.014;7.170;2022-07-21T10:17:24;24.30;99.90
5358;DHT22;2702;51.014;7.170;2022-07-21T10:20:31;24.40;99.90
5358;DHT22;2702;51.014;7.170;2022-07-21T10:23:12;24.60;99.90
5358;DHT22;2702;51.014;7.170;2022-07-21T10:25:40;24.20;99.90
5358;DHT22;2702;51.014;7.170;2022-07-21T10:28:15;24.00;99.90
5358;DHT22;2702;51.014;7.170;2022-07-21T10:30:46;23.80;99.90
5358;DHT22;2702;51.014;7.170;2022-07-21T10:33:14;23.80;99.90
5358;DHT22;2702;51.014;7.170;2022-07-21T10:35:45;24.00;99.90
5358;DHT22;2702;51.014;7.170;2022-07-21T10:38:34;24.20;99.90
5358;DHT22;2702;51.014;7.170;2022-07-21T10:41:01;24.20;99.90
5358;DHT22;2702;51.014;7.170;2022-07-21T10:45:54;23.90;99.90
5358;DHT22;2702;51.014;7.170;2022-07-21T10:51:15;23.90;99.90
5358;DHT22;2702;51.014;7.170;2022-07-21T10:53:42;23.50;99.90
5358;DHT22;2702;51.014;7.170;2022-07-21T10:56:28;23.30;99.90
5358;DHT22;2702;51.014;7.170;2022-07-21T10:58:55;23.10;99.90
5358;DHT22;2702;51.014;7.170;2022-07-21T11:01:24;23.10;99.90
5358;DHT22;2702;51.014;7.170;2022-07-21T11:04:08;23.10;99.90
5358;DHT22;2702;51.014;7.170;2022-07-21T11:06:37;23.20;99.90
5358;DHT22;2702;51.014;7.170;2022-07-21T11:11:38;23.20;99.90
5358;DHT22;2702;51.014;7.170;2022-07-21T11:14:12;23.20;99.90
5358;DHT22;2702;51.014;7.170;2022-07-21T11:21:52;23.10;99.90
5358;DHT22;2702;51.014;7.170;2022-07-21T11:24:21;23.00;99.90
5358;DHT22;2702;51.014;7.170;2022-07-21T11:26:58;22.70;99.90
5358;DHT22;2702;51.014;7.170;2022-07-21T11:29:25;22.60;99.90
5358;DHT22;2702;51.014;7.170;2022-07-21T11:31:51;22.60;99.90
5358;DHT22;2702;51.014;7.170;2022-07-21T11:34:18;22.70;99.90
5358;DHT22;2702;51.014;7.170;2022-07-21T11:36:44;22.80;99.90
5358;DHT22;2702;51.014;7.170;2022-07-21T11:39:15;22.70;99.90
5358;DHT22;2702;51.014;7.170;2022-07-21T11:41:42;22.40;99.90
5358;DHT22;2702;51.014;7.170;2022-07-21T11:44:10;22.40;99.90
5358;DHT22;2702;51.014;7.170;2022-07-21T11:46:53;22.40;99.90
5358;DHT22;2702;51.014;7.170;2022-07-21T11:49:20;22.20;99.90
5358;DHT22;2702;51.014;7.170;2022-07-21T11:51:52;22.10;99.90
5358;DHT22;2702;51.014;7.170;2022-07-21T11:54:33;21.90;99.90
5358;DHT22;2702;51.014;7.170;2022-07-21T11:57:01;21.90;99.90
5358;DHT22;2702;51.014;7.170;2022-07-21T11:59:28;21.90;99.90
5358;DHT22;2702;51.014;7.170;2022-07-21T12:02:03;21.70;99.90
5358;DHT22;2702;51.014;7.170;2022-07-21T12:04:51;21.40;99.90
5358;DHT22;2702;51.014;7.170;2022-07-21T12:10:00;21.10;99.90
5358;DHT22;2702;51.014;7.170;2022-07-21T12:12:39;21.10;99.90
5358;DHT22;2702;51.014;7.170;2022-07-21T12:15:19;21.10;99.90
5358;DHT22;2702;51.014;7.170;2022-07-21T12:17:48;21.20;99.90
5358;DHT22;2702;51.014;7.170;2022-07-21T12:22:59;21.00;99.90
5358;DHT22;2702;51.014;7.170;2022-07-21T12:25:36;20.60;99.90
5358;DHT22;2702;51.014;7.170;2022-07-21T12:28:04;20.50;99.90
5358;DHT22;2702;51.014;7.170;2022-07-21T12:30:41;20.50;99.90
5358;DHT22;2702;51.014;7.170;2022-07-21T12:33:19;20.30;99.90
5358;DHT22;2702;51.014;7.170;2022-07-21T12:36:03;20.30;99.90
5358;DHT22;2702;51.014;7.170;2022-07-21T12:38:40;20.30;99.90
5358;DHT22;2702;51.014;7.170;2022-07-21T12:41:08;20.20;99.90
5358;DHT22;2702;51.014;7.170;2022-07-21T12:43:35;20.20;99.90
5358;DHT22;2702;51.014;7.170;2022-07-21T12:46:08;20.20;99.90
5358;DHT22;2702;51.014;7.170;2022-07-21T12:48:35;20.10;99.90
5358;DHT22;2702;51.014;7.170;2022-07-21T12:51:14;20.00;99.90
5358;DHT22;2702;51.014;7.170;2022-07-21T12:53:51;20.10;99.90
5358;DHT22;2702;51.014;7.170;2022-07-21T12:56:29;20.10;99.90
5358;DHT22;2702;51.014;7.170;2022-07-21T12:58:58;20.20;99.90
5358;DHT22;2702;51.014;7.170;2022-07-21T13:01:26;20.20;99.90
5358;DHT22;2702;51.014;7.170;2022-07-21T13:03:53;20.20;99.90
5358;DHT22;2702;51.014;7.170;2022-07-21T13:06:19;20.10;99.90
5358;DHT22;2702;51.014;7.170;2022-07-21T13:08:47;20.00;99.90
5358;DHT22;2702;51.014;7.170;2022-07-21T13:11:16;19.90;99.90
5358;DHT22;2702;51.014;7.170;2022-07-21T13:13:45;20.00;99.90
5358;DHT22;2702;51.014;7.170;2022-07-21T13:16:11;19.90;99.90
5358;DHT22;2702;51.014;7.170;2022-07-21T13:18:37;20.00;99.90
5358;DHT22;2702;51.014;7.170;2022-07-21T13:21:04;20.10;99.90
5358;DHT22;2702;51.014;7.170;2022-07-21T13:23:31;19.90;99.90
5358;DHT22;2702;51.014;7.170;2022-07-21T13:25:57;19.90;99.90
5358;DHT22;2702;51.014;7.170;2022-07-21T13:28:23;19.90;99.90
5358;DHT22;2702;51.014;7.170;2022-07-21T13:30:49;19.90;99.90
5358;DHT22;2702;51.014;7.170;2022-07-21T13:33:15;19.90;99.90
5358;DHT22;2702;51.014;7.170;2022-07-21T13:35:43;19.90;99.90
5358;DHT22;2702;51.014;7.170;2022-07-21T13:38:12;19.90;99.90
5358;DHT22;2702;51.014;7.170;2022-07-21T13:40:38;19.80;99.90
5358;DHT22;2702;51.014;7.170;2022-07-21T13:43:05;19.60;99.90
5358;DHT22;2702;51.014;7.170;2022-07-21T13:45:31;19.60;99.90
5358;DHT22;2702;51.014;7.170;2022-07-21T13:47:57;19.60;99.90
5358;DHT22;2702;51.014;7.170;2022-07-21T13:50:23;19.70;99.90
5358;DHT22;2702;51.014;7.170;2022-07-21T13:52:49;19.70;99.90
5358;DHT22;2702;51.014;7.170;2022-07-21T13:55:14;19.60;99.90
5358;DHT22;2702;51.014;7.170;2022-07-21T13:57:40;19.60;99.90
5358;DHT22;2702;51.014;7.170;2022-07-21T14:00:10;19.50;99.90
5358;DHT22;2702;51.014;7.170;2022-07-21T14:02:36;19.40;99.90
5358;DHT22;2702;51.014;7.170;2022-07-21T14:05:04;19.50;99.90
5358;DHT22;2702;51.014;7.170;2022-07-21T14:07:30;19.30;99.90
5358;DHT22;2702;51.014;7.170;2022-07-21T14:09:56;19.10;99.90
5358;DHT22;2702;51.014;7.170;2022-07-21T14:12:23;19.10;99.90
5358;DHT22;2702;51.014;7.170;2022-07-21T14:14:49;18.80;99.90
5358;DHT22;2702;51.014;7.170;2022-07-21T14:17:16;18.80;99.90
5358;DHT22;2702;51.014;7.170;2022-07-21T14:19:45;18.70;99.90
5358;DHT22;2702;51.014;7.170;2022-07-21T14:22:14;18.50;99.90
5358;DHT22;2702;51.014;7.170;2022-07-21T14:24:40;18.50;99.90
5358;DHT22;2702;51.014;7.170;2022-07-21T14:27:24;18.50;99.90
5358;DHT22;2702;51.014;7.170;2022-07-21T14:29:50;18.40;99.90
5358;DHT22;2702;51.014;7.170;2022-07-21T14:32:18;18.50;99.90
5358;DHT22;2702;51.014;7.170;2022-07-21T14:34:53;18.40;99.90
5358;DHT22;2702;51.014;7.170;2022-07-21T14:37:20;18.50;99.90
5358;DHT22;2702;51.014;7.170;2022-07-21T14:39:47;18.60;99.90
5358;DHT22;2702;51.014;7.170;2022-07-21T14:42:13;18.60;99.90
5358;DHT22;2702;51.014;7.170;2022-07-21T14:44:39;18.70;99.90
5358;DHT22;2702;51.014;7.170;2022-07-21T14:47:06;18.60;99.90
5358;DHT22;2702;51.014;7.170;2022-07-21T14:49:33;18.70;99.90
5358;DHT22;2702;51.014;7.170;2022-07-21T14:52:00;18.70;99.90
5358;DHT22;2702;51.014;7.170;2022-07-21T14:54:26;18.80;99.90
5358;DHT22;2702;51.014;7.170;2022-07-21T14:56:52;18.60;99.90
5358;DHT22;2702;51.014;7.170;2022-07-21T14:59:18;18.50;99.90
5358;DHT22;2702;51.014;7.170;2022-07-21T15:01:44;18.30;99.90
5358;DHT22;2702;51.014;7.170;2022-07-21T15:04:10;18.30;99.90
5358;DHT22;2702;51.014;7.170;2022-07-21T15:06:36;18.30;99.90
5358;DHT22;2702;51.014;7.170;2022-07-21T15:09:02;18.20;99.90
5358;DHT22;2702;51.014;7.170;2022-07-21T15:11:31;18.20;99.90
5358;DHT22;2702;51.014;7.170;2022-07-21T15:13:57;18.10;99.90
5358;DHT22;2702;51.014;7.170;2022-07-21T15:16:22;18.00;99.90
5358;DHT22;2702;51.014;7.170;2022-07-21T15:18:48;17.90;99.90
5358;DHT22;2702;51.014;7.170;2022-07-21T15:21:14;17.80;99.90
5358;DHT22;2702;51.014;7.170;2022-07-21T15:23:40;17.80;99.90
5358;DHT22;2702;51.014;7.170;2022-07-21T15:26:07;17.80;99.90
5358;DHT22;2702;51.014;7.170;2022-07-21T15:28:33;17.90;99.90
5358;DHT22;2702;51.014;7.170;2022-07-21T15:30:58;18.00;99.90
5358;DHT22;2702;51.014;7.170;2022-07-21T15:33:24;18.00;99.90
5358;DHT22;2702;51.014;7.170;2022-07-21T15:35:50;18.10;99.90
5358;DHT22;2702;51.014;7.170;2022-07-21T15:38:22;18.20;99.90
5358;DHT22;2702;51.014;7.170;2022-07-21T15:40:49;18.30;99.90
5358;DHT22;2702;51.014;7.170;2022-07-21T15:43:16;18.30;99.90
5358;DHT22;2702;51.014;7.170;2022-07-21T15:45:43;18.40;99.90
5358;DHT22;2702;51.014;7.170;2022-07-21T15:48:10;18.40;99.90
5358;DHT22;2702;51.014;7.170;2022-07-21T15:50:36;18.40;99.90
5358;DHT22;2702;51.014;7.170;2022-07-21T15:53:02;18.50;99.90
5358;DHT22;2702;51.014;7.170;2022-07-21T15:55:28;18.50;99.90
5358;DHT22;2702;51.014;7.170;2022-07-21T15:57:54;18.70;99.90
5358;DHT22;2702;51.014;7.170;2022-07-21T16:00:21;18.70;99.90
5358;DHT22;2702;51.014;7.170;2022-07-21T16:02:47;18.70;99.90
5358;DHT22;2702;51.014;7.170;2022-07-21T16:05:18;18.70;99.90
5358;DHT22;2702;51.014;7.170;2022-07-21T16:07:45;18.90;99.90
5358;DHT22;2702;51.014;7.170;2022-07-21T16:10:12;18.90;99.90
5358;DHT22;2702;51.014;7.170;2022-07-21T16:12:39;19.00;99.90
5358;DHT22;2702;51.014;7.170;2022-07-21T16:15:06;19.00;99.90
5358;DHT22;2702;51.014;7.170;2022-07-21T16:17:33;19.00;99.90
5358;DHT22;2702;51.014;7.170;2022-07-21T16:19:59;19.00;99.90
5358;DHT22;2702;51.014;7.170;2022-07-21T16:22:25;19.00;99.90
5358;DHT22;2702;51.014;7.170;2022-07-21T16:24:51;19.00;99.90